createdAt,value
2024-02-13T00:00:31.080Z,99559.15
2024-02-13T00:03:19.849Z,99566.16
2024-02-13T00:05:48.638Z,99568.23
2024-02-13T00:08:18.227Z,99568.09
2024-02-13T00:10:47.251Z,99568.38
2024-02-13T00:13:16.163Z,99567.86
2024-02-13T00:15:44.877Z,99565.38
2024-02-13T00:18:13.703Z,99567.30
2024-02-13T00:20:43.590Z,99568.54
2024-02-13T00:23:12.896Z,99568.29
2024-02-13T00:25:41.640Z,99570.71
2024-02-13T00:28:10.380Z,99577.14
2024-02-13T00:30:41.876Z,99574.98
2024-02-13T00:33:10.854Z,99568.19
2024-02-13T00:35:40.422Z,99561.42
2024-02-13T00:38:09.454Z,99559.03
2024-02-13T00:40:38.139Z,99552.54
2024-02-13T00:43:07.041Z,99551.36
2024-02-13T00:45:35.822Z,99550.89
2024-02-13T00:48:05.191Z,99546.36
2024-02-13T00:50:35.126Z,99546.33
2024-02-13T00:53:03.985Z,99548.08
2024-02-13T00:55:33.220Z,99548.94
2024-02-13T00:58:01.966Z,99545.33
2024-02-13T01:00:30.682Z,99541.91
2024-02-13T01:02:59.587Z,99545.90
2024-02-13T01:05:28.655Z,99546.17
2024-02-13T01:07:57.433Z,99542.27
2024-02-13T01:10:26.147Z,99540.76
2024-02-13T01:12:55.765Z,99539.05
2024-02-13T01:15:24.548Z,99537.33
2024-02-13T01:17:53.383Z,99534.00
2024-02-13T01:20:24.814Z,99544.44
2024-02-13T01:22:55.252Z,99549.67
2024-02-13T01:25:24.441Z,99549.81
2024-02-13T01:27:53.189Z,99548.56
2024-02-13T01:30:21.851Z,99558.73
2024-02-13T01:32:51.307Z,99567.64
2024-02-13T01:35:20.336Z,99571.25
2024-02-13T01:37:49.174Z,99565.64
2024-02-13T01:40:18.878Z,99565.13
2024-02-13T01:42:50.033Z,99570.21
2024-02-13T01:45:19.828Z,99573.60
2024-02-13T01:47:48.991Z,99575.23
2024-02-13T01:50:21.959Z,99580.27
2024-02-13T01:52:52.898Z,99586.20
2024-02-13T01:55:25.326Z,99585.20
2024-02-13T01:57:59.096Z,99583.59
2024-02-13T02:00:29.615Z,99582.74
2024-02-13T02:02:58.509Z,99592.73
2024-02-13T02:05:27.338Z,99597.50
2024-02-13T02:07:57.611Z,99593.93
2024-02-13T02:10:26.406Z,99590.77
2024-02-13T02:12:55.178Z,99593.01
2024-02-13T02:15:23.921Z,99592.17
2024-02-13T02:17:56.542Z,99595.56
2024-02-13T02:20:25.429Z,99606.94
2024-02-13T02:22:54.208Z,99609.52
2024-02-13T02:25:25.705Z,99612.42
2024-02-13T02:27:54.450Z,99612.62
2024-02-13T02:30:23.843Z,99615.41
2024-02-13T02:32:52.671Z,99615.77
2024-02-13T02:35:21.588Z,99619.69
2024-02-13T02:37:52.326Z,99621.96
2024-02-13T02:40:21.389Z,99625.71
2024-02-13T02:42:56.832Z,99622.68
2024-02-13T02:45:25.697Z,99617.77
2024-02-13T02:47:54.704Z,99613.45
2024-02-13T02:50:23.978Z,99614.26
2024-02-13T02:52:56.140Z,99607.63
2024-02-13T02:55:25.427Z,99609.23
2024-02-13T02:57:54.574Z,99614.06
2024-02-13T03:00:23.574Z,99613.98
2024-02-13T03:02:52.383Z,99613.15
2024-02-13T03:05:22.320Z,99611.83
2024-02-13T03:07:51.130Z,99612.40
2024-02-13T03:10:19.889Z,99612.77
2024-02-13T03:12:48.954Z,99618.62
2024-02-13T03:15:18.732Z,99623.10
2024-02-13T03:17:49.467Z,99621.48
2024-02-13T03:20:18.369Z,99627.39
2024-02-13T03:22:47.191Z,99626.84
2024-02-13T03:25:16.040Z,99627.34
2024-02-13T03:27:44.775Z,99629.54
2024-02-13T03:30:14.606Z,99629.67
2024-02-13T03:32:45.718Z,99634.36
2024-02-13T03:35:14.935Z,99633.60
2024-02-13T03:37:43.646Z,99630.42
2024-02-13T03:40:13.163Z,99628.61
2024-02-13T03:42:41.859Z,99625.92
2024-02-13T03:45:11.636Z,99627.50
2024-02-13T03:47:40.520Z,99632.36
2024-02-13T03:50:09.634Z,99636.77
2024-02-13T03:52:38.530Z,99638.42
2024-02-13T03:55:07.582Z,99626.13
2024-02-13T03:57:37.243Z,99635.19
2024-02-13T04:00:09.533Z,99642.34
2024-02-13T04:02:40.425Z,99651.00
2024-02-13T04:05:09.526Z,99657.05
2024-02-13T04:07:38.317Z,99656.95
2024-02-13T04:10:08.327Z,99663.83
2024-02-13T04:12:37.054Z,99666.52
2024-02-13T04:15:06.180Z,99664.04
2024-02-13T04:17:35.022Z,99668.50
2024-02-13T04:20:05.974Z,99673.51
2024-02-13T04:22:34.734Z,99673.16
2024-02-13T04:25:03.683Z,99678.27
2024-02-13T04:27:32.689Z,99675.02
2024-02-13T04:30:01.528Z,99673.38
2024-02-13T04:32:30.682Z,99672.26
2024-02-13T04:35:00.702Z,99670.58
2024-02-13T04:37:29.465Z,99675.40
2024-02-13T04:39:58.131Z,99678.55
2024-02-13T04:42:34.551Z,99680.84
2024-02-13T04:45:04.346Z,99685.23
2024-02-13T04:47:33.277Z,99684.38
2024-02-13T04:50:08.391Z,99686.10
2024-02-13T04:52:37.198Z,99690.17
2024-02-13T04:55:06.616Z,99694.98
2024-02-13T04:57:35.402Z,99699.33
2024-02-13T05:00:15.462Z,99701.98
2024-02-13T05:02:48.254Z,99715.14
2024-02-13T05:05:35.933Z,99712.80
2024-02-13T05:08:08.150Z,99719.38
2024-02-13T05:10:37.077Z,99722.66
2024-02-13T05:13:05.897Z,99722.69
2024-02-13T05:15:35.008Z,99725.00
2024-02-13T05:18:08.157Z,99729.75
2024-02-13T05:20:36.961Z,99730.82
2024-02-13T05:23:05.845Z,99737.98
2024-02-13T05:25:34.490Z,99745.77
2024-02-13T05:28:03.667Z,99754.51
2024-02-13T05:30:34.053Z,99760.20
2024-02-13T05:33:02.845Z,99760.56
2024-02-13T05:35:31.653Z,99763.84
2024-02-13T05:38:02.123Z,99767.14
2024-02-13T05:40:31.376Z,99769.19
2024-02-13T05:43:00.818Z,99775.79
2024-02-13T05:45:29.494Z,99780.42
2024-02-13T05:47:58.434Z,99781.35
2024-02-13T05:50:27.292Z,99784.48
2024-02-13T05:52:56.048Z,99786.67
2024-02-13T05:55:25.001Z,99787.58
2024-02-13T05:57:53.751Z,99787.71
2024-02-13T06:00:25.928Z,99790.59
2024-02-13T06:02:57.394Z,99785.99
2024-02-13T06:05:27.539Z,99790.59
2024-02-13T06:07:56.313Z,99792.73
2024-02-13T06:10:26.256Z,99793.85
2024-02-13T06:12:58.117Z,99794.60
2024-02-13T06:15:27.119Z,99793.84
2024-02-13T06:17:56.177Z,99793.02
2024-02-13T06:20:25.018Z,99798.28
2024-02-13T06:22:53.667Z,99796.02
2024-02-13T06:25:22.374Z,99787.13
2024-02-13T06:27:51.718Z,99789.61
2024-02-13T06:30:20.484Z,99790.71
2024-02-13T06:32:49.506Z,99797.23
2024-02-13T06:35:18.668Z,99803.05
2024-02-13T06:37:47.847Z,99802.05
2024-02-13T06:40:16.775Z,99803.89
2024-02-13T06:42:45.530Z,99806.38
2024-02-13T06:45:14.257Z,99807.13
2024-02-13T06:47:43.145Z,99808.75
2024-02-13T06:50:14.378Z,99806.53
2024-02-13T06:52:44.027Z,99805.18
2024-02-13T06:55:12.778Z,99806.98
2024-02-13T06:57:41.498Z,99808.13
2024-02-13T07:00:13.217Z,99809.46
2024-02-13T07:02:42.600Z,99813.74
2024-02-13T07:05:12.892Z,99817.09
2024-02-13T07:07:47.100Z,99817.27
2024-02-13T07:10:17.940Z,99820.38
2024-02-13T07:12:47.005Z,99822.82
2024-02-13T07:15:16.183Z,99820.52
2024-02-13T07:17:53.156Z,99820.27
2024-02-13T07:20:29.610Z,99826.41
2024-02-13T07:22:58.944Z,99829.29
2024-02-13T07:25:27.727Z,99833.13
2024-02-13T07:28:00.781Z,99836.59
2024-02-13T07:30:29.387Z,99836.84
2024-02-13T07:32:58.264Z,99837.17
2024-02-13T07:35:27.414Z,99836.30
2024-02-13T07:37:56.184Z,99834.35
2024-02-13T07:40:24.943Z,99836.80
2024-02-13T07:42:53.658Z,99840.67
2024-02-13T07:45:22.665Z,99842.84
2024-02-13T07:47:53.629Z,99845.33
2024-02-13T07:50:22.791Z,99840.36
2024-02-13T07:52:51.577Z,99840.41
2024-02-13T07:55:21.240Z,99844.54
2024-02-13T07:57:52.197Z,99848.09
2024-02-13T08:00:22.380Z,99848.15
2024-02-13T08:02:52.694Z,99849.11
2024-02-13T08:05:21.858Z,99855.37
2024-02-13T08:07:51.322Z,99856.86
2024-02-13T08:10:20.081Z,99861.40
2024-02-13T08:12:48.920Z,99862.52
2024-02-13T08:15:17.822Z,99864.64
2024-02-13T08:17:46.621Z,99863.34
2024-02-13T08:20:15.586Z,99858.75
2024-02-13T08:22:44.526Z,99860.63
2024-02-13T08:25:13.306Z,99862.36
2024-02-13T08:27:42.350Z,99864.55
2024-02-13T08:30:11.856Z,99859.95
2024-02-13T08:32:42.852Z,99859.45
2024-02-13T08:35:12.218Z,99859.05
2024-02-13T08:37:41.031Z,99859.04
2024-02-13T08:40:10.473Z,99865.25
2024-02-13T08:42:39.245Z,99868.43
2024-02-13T08:45:10.161Z,99872.93
2024-02-13T08:47:39.316Z,99870.09
2024-02-13T08:50:09.191Z,99878.73
2024-02-13T08:52:37.885Z,99878.71
2024-02-13T08:55:08.762Z,99880.63
2024-02-13T08:57:39.057Z,99881.25
2024-02-13T09:00:13.096Z,99884.44
2024-02-13T09:02:42.049Z,99889.13
2024-02-13T09:05:10.908Z,99889.80
2024-02-13T09:07:40.130Z,99889.08
2024-02-13T09:10:14.028Z,99891.04
2024-02-13T09:12:46.697Z,99894.57
2024-02-13T09:15:15.646Z,99901.73
2024-02-13T09:17:47.022Z,99904.36
2024-02-13T09:20:16.674Z,99903.66
2024-02-13T09:22:46.366Z,99907.80
2024-02-13T09:25:18.856Z,99911.52
2024-02-13T09:27:51.369Z,99916.86
2024-02-13T09:30:20.267Z,99918.67
2024-02-13T09:32:49.839Z,99917.56
2024-02-13T09:35:19.340Z,99918.38
2024-02-13T09:37:48.633Z,99917.98
2024-02-13T09:40:19.373Z,99922.79
2024-02-13T09:42:50.078Z,99925.77
2024-02-13T09:45:19.622Z,99926.88
2024-02-13T09:47:51.044Z,99925.86
2024-02-13T09:50:20.275Z,99927.92
2024-02-13T09:52:56.229Z,99927.33
2024-02-13T09:55:26.578Z,99923.34
2024-02-13T09:57:56.493Z,99926.45
2024-02-13T10:00:25.430Z,99926.66
2024-02-13T10:02:55.478Z,99927.16
2024-02-13T10:05:24.450Z,99925.50
2024-02-13T10:07:53.233Z,99924.84
2024-02-13T10:10:22.021Z,99924.10
2024-02-13T10:12:55.652Z,99923.00
2024-02-13T10:15:25.483Z,99923.46
2024-02-13T10:17:55.820Z,99924.49
2024-02-13T10:20:24.823Z,99923.93
2024-02-13T10:22:56.189Z,99919.74
2024-02-13T10:25:30.888Z,99916.48
2024-02-13T10:28:02.753Z,99915.91
2024-02-13T10:30:31.535Z,99917.20
2024-02-13T10:33:08.856Z,99918.60
2024-02-13T10:35:38.023Z,99920.78
2024-02-13T10:38:09.015Z,99920.21
2024-02-13T10:40:41.319Z,99920.95
2024-02-13T10:43:13.886Z,99925.52
2024-02-13T10:45:43.119Z,99925.71
2024-02-13T10:48:47.144Z,99926.84
2024-02-13T10:51:19.132Z,99930.02
2024-02-13T10:53:52.043Z,99929.65
2024-02-13T10:56:23.301Z,99928.59
2024-02-13T10:58:52.523Z,99930.05
2024-02-13T11:01:24.210Z,99926.44
2024-02-13T11:03:57.093Z,99923.13
2024-02-13T11:06:26.391Z,99925.11
2024-02-13T11:08:57.533Z,99922.25
2024-02-13T11:11:28.881Z,99923.19
2024-02-13T11:13:58.369Z,99925.89
2024-02-13T11:16:27.067Z,99926.61
2024-02-13T11:18:56.875Z,99925.64
2024-02-13T11:21:29.062Z,99929.87
2024-02-13T11:24:02.293Z,99931.73
2024-02-13T11:26:39.185Z,99931.46
2024-02-13T11:29:12.855Z,99932.05
2024-02-13T11:31:44.842Z,99931.09
2024-02-13T11:34:15.375Z,99935.61
2024-02-13T11:36:50.555Z,99937.90
2024-02-13T11:39:20.559Z,99934.98
2024-02-13T11:41:58.788Z,99934.44
2024-02-13T11:44:27.924Z,99935.16
2024-02-13T11:46:56.684Z,99937.55
2024-02-13T11:49:26.985Z,99941.77
2024-02-13T11:51:56.138Z,99944.48
2024-02-13T11:54:26.544Z,99947.58
2024-02-13T11:56:57.387Z,99948.20
2024-02-13T11:59:27.187Z,99945.41
2024-02-13T12:01:55.923Z,99945.19
2024-02-13T12:04:24.962Z,99951.38
2024-02-13T12:06:54.009Z,99953.52
2024-02-13T12:09:23.075Z,99949.63
2024-02-13T12:11:52.792Z,99953.69
2024-02-13T12:14:21.682Z,99958.02
2024-02-13T12:16:51.298Z,99959.75
2024-02-13T12:19:21.438Z,99961.56
2024-02-13T12:21:50.232Z,99959.84
2024-02-13T12:24:19.014Z,99962.41
2024-02-13T12:26:49.017Z,99969.15
2024-02-13T12:29:20.595Z,99971.36
2024-02-13T12:31:49.493Z,99975.27
2024-02-13T12:34:20.309Z,99974.09
2024-02-13T12:36:57.531Z,99975.48
2024-02-13T12:39:27.803Z,99976.94
2024-02-13T12:41:58.894Z,99978.55
2024-02-13T12:44:27.925Z,99980.95
2024-02-13T12:46:56.643Z,99986.44
2024-02-13T12:49:25.524Z,99988.45
2024-02-13T12:51:54.620Z,99989.50
2024-02-13T12:54:24.787Z,100000.09
2024-02-13T12:56:54.497Z,100007.54
2024-02-13T12:59:24.167Z,100006.30
2024-02-13T13:01:55.370Z,100011.77
2024-02-13T13:04:24.542Z,100014.76
2024-02-13T13:06:53.776Z,100020.50
2024-02-13T13:09:27.708Z,100021.59
2024-02-13T13:11:57.729Z,100027.33
2024-02-13T13:14:29.262Z,100030.80
2024-02-13T13:16:58.365Z,100031.63
2024-02-13T13:19:29.712Z,100034.45
2024-02-13T13:21:59.830Z,100039.02
2024-02-13T13:24:30.295Z,100039.27
2024-02-13T13:26:59.122Z,100041.18
2024-02-13T13:29:30.232Z,100047.48
2024-02-13T13:31:59.470Z,100046.90
2024-02-13T13:34:29.456Z,100048.23
2024-02-13T13:36:58.947Z,100040.58
2024-02-13T13:39:30.825Z,100053.55
2024-02-13T13:42:09.142Z,100057.83
2024-02-13T13:44:39.434Z,100060.42
2024-02-13T13:47:09.442Z,100063.16
2024-02-13T13:49:39.513Z,100061.19
2024-02-13T13:52:08.569Z,100064.30
2024-02-13T13:54:37.330Z,100067.64
2024-02-13T13:57:06.316Z,100071.22
2024-02-13T13:59:35.116Z,100071.67
2024-02-13T14:02:04.006Z,100073.30
2024-02-13T14:04:32.712Z,100073.48
2024-02-13T14:07:01.598Z,100077.48
2024-02-13T14:09:30.480Z,100079.52
2024-02-13T14:12:00.380Z,100077.02
2024-02-13T14:14:29.427Z,100075.33
2024-02-13T14:16:58.264Z,100081.76
2024-02-13T14:19:27.096Z,100082.81
2024-02-13T14:22:00.494Z,100082.12
2024-02-13T14:24:29.495Z,100089.95
2024-02-13T14:26:58.632Z,100093.46
2024-02-13T14:29:27.613Z,100098.82
2024-02-13T14:31:59.868Z,100100.33
2024-02-13T14:34:28.658Z,100102.73
2024-02-13T14:37:00.606Z,100101.95
2024-02-13T14:39:29.483Z,100103.03
2024-02-13T14:41:59.750Z,100102.33
2024-02-13T14:44:28.608Z,100102.97
2024-02-13T14:46:58.895Z,100107.89
2024-02-13T14:49:27.858Z,100107.52
2024-02-13T14:51:56.686Z,100111.36
2024-02-13T14:54:25.721Z,100118.14
2024-02-13T14:56:55.077Z,100112.93
2024-02-13T14:59:26.529Z,100115.61
2024-02-13T15:01:56.275Z,100127.14
2024-02-13T15:04:25.047Z,100125.48
2024-02-13T15:06:54.017Z,100131.02
2024-02-13T15:09:22.955Z,100132.52
2024-02-13T15:11:51.808Z,100133.98
2024-02-13T15:14:20.558Z,100137.04
2024-02-13T15:16:49.798Z,100144.59
2024-02-13T15:19:19.219Z,100145.48
2024-02-13T15:21:50.235Z,100151.62
2024-02-13T15:24:23.844Z,100154.09
2024-02-13T15:26:52.740Z,100152.01
2024-02-13T15:29:23.509Z,100163.83
2024-02-13T15:31:52.456Z,100157.46
2024-02-13T15:34:24.466Z,100165.75
2024-02-13T15:37:04.996Z,100176.23
2024-02-13T15:39:52.014Z,100176.60
2024-02-13T15:42:38.930Z,100179.05
2024-02-13T15:45:26.431Z,100191.67
2024-02-13T15:47:55.320Z,100186.96
2024-02-13T15:50:25.521Z,100200.16
2024-02-13T15:52:54.327Z,100201.71
2024-02-13T15:55:30.636Z,100207.86
2024-02-13T15:58:00.115Z,100204.48
2024-02-13T16:00:31.832Z,100217.21
2024-02-13T16:03:02.172Z,100219.78
2024-02-13T16:05:31.739Z,100221.37
2024-02-13T16:08:00.737Z,100238.23
2024-02-13T16:10:33.574Z,100230.45
2024-02-13T16:13:05.521Z,100242.04
2024-02-13T16:15:34.316Z,100234.73
2024-02-13T16:18:03.140Z,100239.91
2024-02-13T16:20:32.018Z,100246.42
2024-02-13T16:23:00.873Z,100259.08
2024-02-13T16:25:35.569Z,100257.13
2024-02-13T16:28:07.083Z,100258.92
2024-02-13T16:30:36.480Z,100261.18
2024-02-13T16:33:07.417Z,100263.46
2024-02-13T16:35:36.433Z,100264.09
2024-02-13T16:38:05.612Z,100264.66
2024-02-13T16:40:34.379Z,100276.65
2024-02-13T16:43:05.319Z,100283.62
2024-02-13T16:45:34.372Z,100278.80
2024-02-13T16:48:07.178Z,100277.70
2024-02-13T16:50:36.221Z,100282.51
2024-02-13T16:53:06.024Z,100290.08
2024-02-13T16:55:34.820Z,100290.67
2024-02-13T16:58:04.637Z,100290.64
2024-02-13T17:00:33.509Z,100289.13
2024-02-13T17:03:02.684Z,100293.83
2024-02-13T17:05:31.692Z,100292.08
2024-02-13T17:08:01.099Z,100290.86
2024-02-13T17:10:30.097Z,100299.90
2024-02-13T17:13:01.474Z,100302.38
2024-02-13T17:15:30.716Z,100306.15
2024-02-13T17:17:59.870Z,100306.57
2024-02-13T17:20:29.013Z,100314.77
2024-02-13T17:22:57.900Z,100307.55
2024-02-13T17:25:26.721Z,100306.76
2024-02-13T17:27:56.020Z,100320.53
2024-02-13T17:30:24.864Z,100316.51
2024-02-13T17:32:56.260Z,100318.95
2024-02-13T17:35:26.805Z,100319.77
2024-02-13T17:37:55.492Z,100318.23
2024-02-13T17:40:24.312Z,100317.14
2024-02-13T17:42:53.026Z,100317.55
2024-02-13T17:45:21.814Z,100325.84
2024-02-13T17:47:50.685Z,100321.11
2024-02-13T17:50:20.001Z,100332.35
2024-02-13T17:52:48.769Z,100331.77
2024-02-13T17:55:21.567Z,100334.27
2024-02-13T17:57:50.534Z,100332.02
2024-02-13T18:00:24.549Z,100335.04
2024-02-13T18:02:54.108Z,100338.63
2024-02-13T18:05:23.059Z,100338.29
2024-02-13T18:07:51.999Z,100339.68
2024-02-13T18:10:20.788Z,100343.81
2024-02-13T18:12:49.901Z,100335.05
2024-02-13T18:15:18.662Z,100353.92
2024-02-13T18:17:49.274Z,100346.35
2024-02-13T18:20:19.513Z,100347.58
2024-02-13T18:22:49.168Z,100353.80
2024-02-13T18:25:17.931Z,100364.80
2024-02-13T18:27:46.719Z,100365.89
2024-02-13T18:30:17.175Z,100368.35
2024-02-13T18:32:46.557Z,100372.95
2024-02-13T18:35:16.016Z,100366.98
2024-02-13T18:37:44.815Z,100373.35
2024-02-13T18:40:15.991Z,100380.52
2024-02-13T18:42:48.685Z,100379.30
2024-02-13T18:45:17.511Z,100384.68
2024-02-13T18:47:46.450Z,100382.13
2024-02-13T18:50:18.252Z,100386.98
2024-02-13T18:52:48.953Z,100392.38
2024-02-13T18:55:18.108Z,100401.61
2024-02-13T18:57:46.910Z,100393.71
2024-02-13T19:00:17.631Z,100402.90
2024-02-13T19:02:46.481Z,100390.35
2024-02-13T19:05:15.337Z,100405.98
2024-02-13T19:07:44.167Z,100402.45
2024-02-13T19:10:12.951Z,100400.85
2024-02-13T19:12:43.775Z,100412.66
2024-02-13T19:15:13.191Z,100417.38
2024-02-13T19:17:42.909Z,100425.19
2024-02-13T19:20:13.857Z,100415.06
2024-02-13T19:22:42.773Z,100419.73
2024-02-13T19:25:11.805Z,100416.39
2024-02-13T19:27:40.722Z,100428.55
2024-02-13T19:30:10.196Z,100431.63
2024-02-13T19:32:42.655Z,100430.23
2024-02-13T19:35:11.433Z,100426.80
2024-02-13T19:37:40.126Z,100433.73
2024-02-13T19:40:10.780Z,100436.52
2024-02-13T19:42:39.577Z,100429.01
2024-02-13T19:45:08.893Z,100437.45
2024-02-13T19:47:37.915Z,100435.56
2024-02-13T19:50:07.413Z,100436.89
2024-02-13T19:52:37.816Z,100439.84
2024-02-13T19:55:08.341Z,100442.17
2024-02-13T19:57:37.818Z,100435.86
2024-02-13T20:00:13.051Z,100434.95
2024-02-13T20:02:43.783Z,100451.86
2024-02-13T20:05:12.779Z,100444.74
2024-02-13T20:07:41.543Z,100450.48
2024-02-13T20:10:10.804Z,100449.20
2024-02-13T20:12:39.537Z,100453.93
2024-02-13T20:15:09.804Z,100453.11
2024-02-13T20:17:39.112Z,100454.98
2024-02-13T20:20:09.904Z,100445.42
2024-02-13T20:22:38.692Z,100455.05
2024-02-13T20:25:10.209Z,100462.18
2024-02-13T20:27:38.941Z,100459.02
2024-02-13T20:30:10.292Z,100460.57
2024-02-13T20:32:39.146Z,100466.11
2024-02-13T20:35:09.050Z,100460.41
2024-02-13T20:37:42.012Z,100463.79
2024-02-13T20:40:13.202Z,100470.10
2024-02-13T20:42:46.973Z,100469.40
2024-02-13T20:45:21.989Z,100465.50
2024-02-13T20:47:54.029Z,100466.98
2024-02-13T20:50:23.311Z,100470.88
2024-02-13T20:52:52.116Z,100475.39
2024-02-13T20:55:24.012Z,100470.91
2024-02-13T20:57:56.993Z,100482.34
2024-02-13T21:00:25.847Z,100480.65
2024-02-13T21:02:54.728Z,100477.98
2024-02-13T21:05:25.885Z,100487.32
2024-02-13T21:07:55.219Z,100493.48
2024-02-13T21:10:24.252Z,100491.13
2024-02-13T21:12:53.063Z,100488.96
2024-02-13T21:15:21.881Z,100493.48
2024-02-13T21:17:51.183Z,100499.09
2024-02-13T21:20:21.663Z,100499.02
2024-02-13T21:23:09.819Z,100504.92
2024-02-13T21:25:38.710Z,100503.40
2024-02-13T21:28:07.522Z,100506.97
2024-02-13T21:30:36.294Z,100510.04
2024-02-13T21:33:05.796Z,100508.59
2024-02-13T21:35:34.816Z,100517.33
2024-02-13T21:38:05.613Z,100514.75
2024-02-13T21:40:35.232Z,100523.39
2024-02-13T21:43:06.563Z,100519.70
2024-02-13T21:45:35.364Z,100523.13
2024-02-13T21:48:06.144Z,100525.43
2024-02-13T21:50:35.425Z,100526.56
2024-02-13T21:53:04.277Z,100528.39
2024-02-13T21:55:33.245Z,100526.39
2024-02-13T21:58:02.556Z,100536.05
2024-02-13T22:00:32.172Z,100540.13
2024-02-13T22:03:01.785Z,100533.41
2024-02-13T22:05:30.728Z,100534.52
2024-02-13T22:07:59.475Z,100540.28
2024-02-13T22:10:28.256Z,100545.28
2024-02-13T22:12:57.016Z,100545.58
2024-02-13T22:15:25.730Z,100545.90
2024-02-13T22:17:54.510Z,100540.56
2024-02-13T22:20:23.310Z,100553.83
2024-02-13T22:22:52.065Z,100557.44
2024-02-13T22:25:20.808Z,100561.95
2024-02-13T22:27:49.599Z,100555.73
2024-02-13T22:30:18.913Z,100560.39
2024-02-13T22:32:48.227Z,100557.09
2024-02-13T22:35:17.142Z,100551.13
2024-02-13T22:37:45.849Z,100564.20
2024-02-13T22:40:14.996Z,100561.16
2024-02-13T22:42:43.715Z,100566.93
2024-02-13T22:45:12.548Z,100563.41
2024-02-13T22:47:45.022Z,100571.48
2024-02-13T22:50:14.152Z,100573.06
2024-02-13T22:52:42.828Z,100575.87
2024-02-13T22:55:11.599Z,100573.65
2024-02-13T22:57:40.366Z,100585.27
2024-02-13T23:00:29.798Z,100582.06
2024-02-13T23:02:58.740Z,100585.33
2024-02-13T23:05:27.965Z,100598.25
2024-02-13T23:07:56.732Z,100596.90
2024-02-13T23:10:25.684Z,100594.52
2024-02-13T23:12:54.362Z,100603.15
2024-02-13T23:15:26.177Z,100606.23
2024-02-13T23:17:55.408Z,100607.98
2024-02-13T23:20:24.185Z,100612.73
2024-02-13T23:22:52.859Z,100611.94
2024-02-13T23:25:21.740Z,100605.43
2024-02-13T23:27:50.524Z,100613.70
2024-02-13T23:30:20.609Z,100616.38
2024-02-13T23:32:50.268Z,100618.96
2024-02-13T23:35:19.697Z,100610.63
2024-02-13T23:37:48.400Z,100622.19
2024-02-13T23:40:19.570Z,100635.76
2024-02-13T23:42:52.143Z,100631.33
2024-02-13T23:45:20.915Z,100624.50
2024-02-13T23:47:49.739Z,100626.64
2024-02-13T23:50:20.493Z,100648.10
2024-02-13T23:52:49.305Z,100636.14
2024-02-13T23:55:18.208Z,100646.23
2024-02-13T23:57:47.512Z,100646.86
